createdAt,value
2023-11-01T00:00:25.501Z,11.34
2023-11-01T00:02:58.522Z,11.30
2023-11-01T00:05:31.918Z,11.21
2023-11-01T00:08:05.124Z,11.24
2023-11-01T00:10:38.196Z,11.31
2023-11-01T00:13:12.452Z,11.25
2023-11-01T00:15:45.500Z,11.12
2023-11-01T00:18:21.782Z,11.07
2023-11-01T00:20:54.961Z,11.10
2023-11-01T00:23:27.866Z,11.15
2023-11-01T00:26:01.082Z,11.21
2023-11-01T00:28:35.504Z,10.94
2023-11-01T00:31:08.893Z,11.06
2023-11-01T00:33:42.200Z,11.10
2023-11-01T00:36:15.148Z,11.16
2023-11-01T00:38:48.023Z,11.09
2023-11-01T00:41:20.947Z,11.05
2023-11-01T00:43:55.188Z,10.92
2023-11-01T00:46:29.124Z,10.76
2023-11-01T00:49:02.133Z,10.58
2023-11-01T00:51:35.281Z,10.48
2023-11-01T00:54:08.571Z,10.46
2023-11-01T00:56:42.260Z,10.52
2023-11-01T00:59:16.617Z,10.60
2023-11-01T01:01:49.723Z,10.67
2023-11-01T01:04:22.879Z,10.70
2023-11-01T01:06:55.833Z,10.83
2023-11-01T01:09:28.776Z,10.68
2023-11-01T01:12:01.783Z,10.65
2023-11-01T01:14:36.121Z,10.59
2023-11-01T01:17:09.908Z,10.60
2023-11-01T01:19:42.806Z,10.60
2023-11-01T01:22:15.703Z,10.55
2023-11-01T01:24:48.740Z,10.61
2023-11-01T01:27:21.705Z,10.61
2023-11-01T01:29:56.031Z,10.59
2023-11-01T01:32:33.781Z,10.85
2023-11-01T01:35:07.782Z,10.84
2023-11-01T01:37:41.323Z,10.80
2023-11-01T01:40:16.506Z,10.66
2023-11-01T01:42:49.526Z,10.62
2023-11-01T01:45:23.883Z,10.57
2023-11-01T01:47:56.921Z,10.66
2023-11-01T01:50:30.048Z,10.65
2023-11-01T01:53:03.799Z,10.54
2023-11-01T01:55:37.842Z,10.67
2023-11-01T01:58:12.190Z,10.76
2023-11-01T02:00:46.992Z,10.75
2023-11-01T02:03:20.384Z,10.82
2023-11-01T02:05:54.061Z,10.89
2023-11-01T02:08:27.440Z,11.05
2023-11-01T02:11:00.665Z,11.06
2023-11-01T02:13:33.820Z,11.06
2023-11-01T02:16:08.958Z,10.95
2023-11-01T02:18:41.932Z,10.96
2023-11-01T02:21:14.830Z,10.99
2023-11-01T02:23:50.599Z,10.69
2023-11-01T02:26:26.738Z,10.66
2023-11-01T02:28:59.854Z,10.76
2023-11-01T02:31:32.971Z,10.67
2023-11-01T02:34:09.287Z,10.66
2023-11-01T02:36:42.237Z,10.67
2023-11-01T02:39:16.607Z,10.66
2023-11-01T02:41:49.580Z,10.51
2023-11-01T02:44:22.521Z,10.46
2023-11-01T02:46:55.455Z,10.45
2023-11-01T02:49:28.328Z,10.53
2023-11-01T02:52:01.298Z,10.61
2023-11-01T02:54:35.556Z,10.52
2023-11-01T02:57:08.439Z,10.62
2023-11-01T02:59:41.336Z,10.44
2023-11-01T03:02:14.350Z,10.55
2023-11-01T03:04:47.374Z,10.46
2023-11-01T03:07:20.609Z,10.42
2023-11-01T03:09:55.451Z,10.54
2023-11-01T03:12:28.365Z,10.40
2023-11-01T03:15:01.263Z,10.57
2023-11-01T03:17:35.722Z,10.49
2023-11-01T03:20:09.975Z,10.34
2023-11-01T03:22:43.511Z,10.40
2023-11-01T03:25:29.381Z,10.35
2023-11-01T03:28:02.356Z,10.35
2023-11-01T03:30:35.454Z,10.40
2023-11-01T03:33:08.523Z,10.44
2023-11-01T03:35:42.222Z,10.42
2023-11-01T03:38:15.198Z,10.45
2023-11-01T03:40:49.581Z,10.51
2023-11-01T03:43:23.089Z,10.40
2023-11-01T03:45:56.097Z,10.53
2023-11-01T03:48:29.298Z,10.42
2023-11-01T03:51:02.369Z,10.46
2023-11-01T03:53:35.797Z,10.53
2023-11-01T03:56:10.800Z,10.41
2023-11-01T03:58:44.221Z,10.36
2023-11-01T04:01:18.391Z,10.44
2023-11-01T04:03:51.430Z,10.46
2023-11-01T04:06:24.648Z,10.36
2023-11-01T04:08:57.629Z,10.44
2023-11-01T04:11:32.018Z,10.47
2023-11-01T04:14:05.694Z,10.45
2023-11-01T04:16:38.564Z,10.43
2023-11-01T04:19:12.732Z,10.45
2023-11-01T04:21:45.869Z,10.53
2023-11-01T04:24:18.788Z,10.67
2023-11-01T04:26:53.811Z,10.54
2023-11-01T04:29:27.702Z,10.65
2023-11-01T04:32:01.057Z,10.64
2023-11-01T04:34:34.449Z,10.56
2023-11-01T04:37:07.662Z,10.65
2023-11-01T04:39:41.530Z,10.66
2023-11-01T04:42:17.976Z,10.59
2023-11-01T04:44:51.089Z,10.48
2023-11-01T04:47:24.363Z,10.46
2023-11-01T04:49:57.750Z,10.51
2023-11-01T04:52:31.662Z,10.49
2023-11-01T04:55:06.450Z,10.50
2023-11-01T04:57:43.074Z,10.54
2023-11-01T05:00:17.819Z,10.63
2023-11-01T05:02:51.386Z,10.59
2023-11-01T05:05:24.619Z,10.60
2023-11-01T05:07:58.077Z,10.66
2023-11-01T05:10:30.963Z,10.72
2023-11-01T05:13:06.917Z,10.62
2023-11-01T05:15:40.881Z,10.60
2023-11-01T05:18:13.829Z,10.62
2023-11-01T05:20:46.851Z,10.61
2023-11-01T05:23:30.277Z,10.63
2023-11-01T05:26:03.335Z,10.61
2023-11-01T05:28:37.693Z,10.59
2023-11-01T05:31:10.913Z,10.61
2023-11-01T05:33:44.025Z,10.60
2023-11-01T05:36:17.291Z,10.61
2023-11-01T05:38:50.613Z,10.60
2023-11-01T05:41:24.169Z,10.65
2023-11-01T05:43:58.377Z,10.64
2023-11-01T05:46:31.362Z,10.60
2023-11-01T05:49:05.471Z,10.84
2023-11-01T05:51:38.348Z,10.71
2023-11-01T05:54:11.348Z,10.64
2023-11-01T05:56:44.590Z,10.69
2023-11-01T05:59:18.999Z,10.58
2023-11-01T06:01:54.220Z,10.62
2023-11-01T06:04:27.287Z,10.61
2023-11-01T06:07:00.289Z,10.63
2023-11-01T06:09:33.225Z,10.61
2023-11-01T06:12:07.217Z,10.69
2023-11-01T06:14:41.637Z,10.63
2023-11-01T06:17:14.681Z,10.65
2023-11-01T06:19:49.907Z,10.64
2023-11-01T06:22:22.792Z,10.72
2023-11-01T06:24:56.380Z,10.70
2023-11-01T06:27:29.443Z,10.57
2023-11-01T06:30:06.070Z,10.61
2023-11-01T06:32:39.082Z,10.65
2023-11-01T06:35:12.445Z,10.63
2023-11-01T06:37:47.721Z,10.67
2023-11-01T06:40:20.729Z,10.72
2023-11-01T06:42:54.956Z,10.71
2023-11-01T06:45:29.327Z,10.75
2023-11-01T06:48:02.220Z,10.80
2023-11-01T06:50:36.075Z,10.83
2023-11-01T06:53:09.062Z,10.87
2023-11-01T06:55:41.988Z,10.90
2023-11-01T06:58:15.075Z,10.98
2023-11-01T07:00:49.918Z,10.97
2023-11-01T07:03:23.132Z,11.05
2023-11-01T07:05:56.882Z,11.10
2023-11-01T07:08:30.045Z,11.12
2023-11-01T07:11:03.281Z,11.10
2023-11-01T07:13:36.160Z,11.20
2023-11-01T07:16:13.793Z,11.23
2023-11-01T07:18:47.065Z,11.29
2023-11-01T07:21:20.081Z,11.29
2023-11-01T07:23:53.613Z,11.22
2023-11-01T07:26:26.810Z,11.20
2023-11-01T07:29:00.670Z,11.35
2023-11-01T07:31:35.094Z,11.31
2023-11-01T07:34:08.339Z,11.53
2023-11-01T07:36:41.262Z,11.49
2023-11-01T07:39:14.608Z,11.72
2023-11-01T07:41:47.792Z,11.91
2023-11-01T07:44:20.992Z,11.97
2023-11-01T07:46:55.349Z,12.08
2023-11-01T07:49:28.228Z,12.07
2023-11-01T07:52:01.242Z,12.16
2023-11-01T07:54:34.137Z,12.30
2023-11-01T07:57:07.338Z,12.41
2023-11-01T07:59:40.576Z,12.56
2023-11-01T08:02:14.889Z,12.26
2023-11-01T08:04:48.069Z,12.28
2023-11-01T08:07:21.107Z,12.19
2023-11-01T08:09:54.352Z,12.21
2023-11-01T08:12:27.443Z,12.18
2023-11-01T08:15:00.332Z,12.05
2023-11-01T08:17:34.982Z,12.11
2023-11-01T08:20:09.620Z,12.08
2023-11-01T08:22:42.845Z,12.31
2023-11-01T08:25:16.160Z,12.24
2023-11-01T08:27:49.340Z,12.35
2023-11-01T08:30:22.431Z,12.47
2023-11-01T08:32:56.941Z,12.59
2023-11-01T08:35:30.836Z,12.72
2023-11-01T08:38:04.496Z,12.88
2023-11-01T08:40:37.535Z,13.11
2023-11-01T08:43:10.480Z,13.12
2023-11-01T08:45:45.090Z,13.28
2023-11-01T08:48:21.884Z,13.74
2023-11-01T08:50:54.756Z,13.84
2023-11-01T08:53:29.374Z,14.12
2023-11-01T08:56:03.677Z,13.99
2023-11-01T08:58:36.901Z,14.11
2023-11-01T09:01:11.012Z,14.03
2023-11-01T09:03:45.451Z,14.21
2023-11-01T09:06:18.612Z,14.51
2023-11-01T09:08:51.593Z,14.59
2023-11-01T09:11:26.527Z,14.69
2023-11-01T09:13:59.410Z,14.93
2023-11-01T09:16:33.231Z,14.73
2023-11-01T09:19:07.966Z,14.66
2023-11-01T09:21:40.921Z,14.80
2023-11-01T09:24:13.784Z,15.03
2023-11-01T09:26:48.287Z,15.09
2023-11-01T09:29:21.393Z,15.18
2023-11-01T09:31:54.303Z,14.93
2023-11-01T09:34:28.497Z,14.73
2023-11-01T09:37:01.472Z,14.87
2023-11-01T09:39:34.666Z,15.03
2023-11-01T09:42:13.055Z,15.35
2023-11-01T09:44:48.521Z,15.78
2023-11-01T09:47:22.088Z,15.82
2023-11-01T09:49:57.670Z,15.72
2023-11-01T09:52:33.335Z,15.87
2023-11-01T09:55:09.726Z,15.32
2023-11-01T09:57:44.750Z,15.28
2023-11-01T10:00:20.133Z,14.99
2023-11-01T10:02:53.598Z,14.81
2023-11-01T10:05:28.001Z,14.91
2023-11-01T10:08:01.076Z,14.74
2023-11-01T10:10:34.024Z,14.68
2023-11-01T10:13:07.258Z,14.79
2023-11-01T10:15:41.304Z,14.77
2023-11-01T10:18:14.303Z,14.84
2023-11-01T10:20:49.037Z,15.09
2023-11-01T10:23:28.113Z,15.32
2023-11-01T10:26:01.070Z,15.45
2023-11-01T10:28:36.339Z,15.66
2023-11-01T10:31:09.588Z,16.22
2023-11-01T10:33:43.736Z,16.16
2023-11-01T10:36:18.689Z,16.22
2023-11-01T10:38:52.982Z,15.89
2023-11-01T10:41:27.261Z,15.92
2023-11-01T10:44:00.348Z,16.09
2023-11-01T10:46:37.895Z,16.22
2023-11-01T10:49:13.000Z,16.34
2023-11-01T10:51:49.410Z,16.14
2023-11-01T10:54:23.245Z,16.36
2023-11-01T10:56:56.852Z,16.14
2023-11-01T10:59:36.923Z,16.11
2023-11-01T11:02:18.210Z,16.21
2023-11-01T11:04:59.106Z,16.46
2023-11-01T11:07:45.040Z,16.51
2023-11-01T11:10:25.783Z,16.47
2023-11-01T11:13:27.652Z,16.55
2023-11-01T11:16:05.095Z,16.57
2023-11-01T11:18:59.841Z,16.64
2023-11-01T11:22:00.604Z,16.82
2023-11-01T11:24:53.823Z,17.03
2023-11-01T11:28:04.229Z,16.80
2023-11-01T11:30:59.996Z,17.08
2023-11-01T11:33:33.323Z,17.04
2023-11-01T11:36:11.207Z,16.96
2023-11-01T11:38:52.740Z,17.22
2023-11-01T11:41:29.019Z,17.20
2023-11-01T11:44:06.470Z,17.18
2023-11-01T11:46:41.595Z,17.18
2023-11-01T11:49:25.573Z,17.37
2023-11-01T11:52:00.604Z,17.51
2023-11-01T11:54:35.200Z,17.67
2023-11-01T11:57:12.425Z,17.55
2023-11-01T11:59:45.577Z,18.12
2023-11-01T12:02:18.530Z,18.38
2023-11-01T12:04:51.819Z,18.17
2023-11-01T12:07:24.941Z,17.91
2023-11-01T12:09:58.769Z,18.10
2023-11-01T12:12:33.124Z,17.78
2023-11-01T12:15:08.171Z,17.77
2023-11-01T12:17:41.195Z,17.02
2023-11-01T12:20:14.344Z,17.10
2023-11-01T12:22:47.307Z,17.63
2023-11-01T12:25:25.792Z,17.40
2023-11-01T12:28:00.328Z,17.30
2023-11-01T12:30:34.139Z,17.72
2023-11-01T12:33:20.408Z,17.45
2023-11-01T12:35:53.394Z,17.98
2023-11-01T12:38:26.387Z,17.86
2023-11-01T12:41:00.390Z,17.97
2023-11-01T12:43:38.282Z,17.55
2023-11-01T12:46:11.126Z,17.69
2023-11-01T12:48:44.372Z,17.81
2023-11-01T12:51:17.317Z,17.72
2023-11-01T12:53:50.445Z,17.94
2023-11-01T12:56:23.637Z,17.84
2023-11-01T12:58:57.879Z,17.86
2023-11-01T13:01:30.992Z,17.87
2023-11-01T13:04:04.195Z,17.64
2023-11-01T13:06:37.198Z,17.62
2023-11-01T13:09:10.778Z,17.61
2023-11-01T13:11:43.710Z,17.61
2023-11-01T13:14:18.103Z,17.63
2023-11-01T13:16:51.300Z,17.79
2023-11-01T13:19:24.598Z,17.41
2023-11-01T13:21:57.993Z,16.93
2023-11-01T13:24:30.974Z,16.82
2023-11-01T13:27:10.330Z,16.69
2023-11-01T13:29:49.041Z,16.33
2023-11-01T13:32:22.000Z,16.37
2023-11-01T13:34:56.932Z,16.43
2023-11-01T13:37:32.787Z,16.47
2023-11-01T13:40:06.809Z,16.52
2023-11-01T13:42:40.312Z,16.52
2023-11-01T13:45:14.552Z,16.54
2023-11-01T13:47:47.615Z,16.61
2023-11-01T13:50:20.851Z,16.50
2023-11-01T13:52:54.639Z,16.33
2023-11-01T13:55:50.227Z,16.39
2023-11-01T13:58:32.048Z,16.31
2023-11-01T14:01:16.780Z,16.36
2023-11-01T14:03:52.460Z,16.36
2023-11-01T14:06:26.165Z,16.50
2023-11-01T14:08:59.234Z,16.60
2023-11-01T14:11:33.044Z,16.49
2023-11-01T14:14:06.573Z,16.55
2023-11-01T14:16:43.197Z,16.68
2023-11-01T14:19:16.220Z,16.63
2023-11-01T14:21:49.235Z,16.57
2023-11-01T14:24:22.605Z,16.42
2023-11-01T14:26:55.569Z,16.37
2023-11-01T14:29:28.562Z,16.30
2023-11-01T14:32:03.014Z,16.23
2023-11-01T14:34:36.098Z,16.20
2023-11-01T14:37:09.169Z,16.10
2023-11-01T14:39:44.134Z,16.03
2023-11-01T14:42:17.243Z,15.90
2023-11-01T14:44:51.021Z,15.80
2023-11-01T14:47:25.391Z,15.84
2023-11-01T14:49:58.329Z,15.77
2023-11-01T14:52:31.283Z,15.75
2023-11-01T14:55:05.099Z,15.76
2023-11-01T14:57:38.453Z,15.76
2023-11-01T15:00:14.139Z,15.58
2023-11-01T15:02:49.757Z,15.50
2023-11-01T15:05:24.919Z,15.57
2023-11-01T15:07:58.363Z,15.50
2023-11-01T15:10:31.342Z,15.42
2023-11-01T15:13:04.365Z,15.30
2023-11-01T15:15:37.167Z,15.30
2023-11-01T15:18:11.496Z,15.15
2023-11-01T15:20:44.436Z,15.17
2023-11-01T15:23:17.416Z,15.05
2023-11-01T15:25:50.463Z,15.11
2023-11-01T15:28:23.438Z,14.80
2023-11-01T15:30:56.414Z,14.82
2023-11-01T15:33:32.700Z,14.67
2023-11-01T15:36:06.632Z,14.63
2023-11-01T15:38:39.529Z,14.67
2023-11-01T15:41:12.495Z,14.59
2023-11-01T15:43:45.423Z,14.54
2023-11-01T15:46:18.395Z,14.35
2023-11-01T15:48:52.758Z,14.35
2023-11-01T15:51:25.634Z,14.28
2023-11-01T15:53:58.805Z,14.17
2023-11-01T15:56:31.699Z,14.13
2023-11-01T15:59:04.650Z,14.10
2023-11-01T16:01:37.831Z,14.09
2023-11-01T16:04:12.613Z,14.04
2023-11-01T16:06:45.625Z,14.01
2023-11-01T16:09:19.191Z,13.94
2023-11-01T16:11:52.116Z,13.89
2023-11-01T16:14:26.140Z,13.68
2023-11-01T16:16:59.277Z,13.66
2023-11-01T16:19:33.535Z,13.60
2023-11-01T16:22:06.464Z,13.70
2023-11-01T16:24:39.675Z,13.62
2023-11-01T16:27:12.649Z,13.60
2023-11-01T16:29:46.195Z,13.39
2023-11-01T16:32:19.640Z,13.37
2023-11-01T16:34:54.096Z,13.34
2023-11-01T16:37:27.168Z,13.35
2023-11-01T16:40:00.277Z,13.27
2023-11-01T16:42:33.811Z,13.37
2023-11-01T16:45:07.949Z,13.25
2023-11-01T16:47:43.181Z,13.11
2023-11-01T16:50:17.512Z,13.18
2023-11-01T16:52:50.428Z,13.24
2023-11-01T16:55:23.407Z,13.40
2023-11-01T16:57:57.797Z,13.47
2023-11-01T17:00:31.904Z,13.45
2023-11-01T17:03:09.055Z,13.54
2023-11-01T17:05:43.482Z,13.58
2023-11-01T17:08:16.708Z,13.58
2023-11-01T17:10:49.768Z,13.53
2023-11-01T17:13:24.813Z,13.56
2023-11-01T17:15:59.138Z,13.58
2023-11-01T17:18:32.206Z,13.62
2023-11-01T17:21:07.259Z,13.57
2023-11-01T17:23:45.863Z,13.65
2023-11-01T17:26:29.670Z,13.63
2023-11-01T17:29:02.835Z,13.47
2023-11-01T17:31:40.464Z,13.49
2023-11-01T17:34:15.460Z,13.53
2023-11-01T17:36:49.744Z,13.44
2023-11-01T17:39:22.730Z,13.37
2023-11-01T17:41:59.804Z,13.43
2023-11-01T17:44:35.660Z,13.41
2023-11-01T17:47:10.190Z,13.43
2023-11-01T17:49:52.600Z,13.46
2023-11-01T17:52:33.961Z,13.50
2023-11-01T17:55:09.350Z,13.45
2023-11-01T17:57:42.185Z,13.44
2023-11-01T18:00:16.239Z,13.43
2023-11-01T18:03:19.212Z,13.38
2023-11-01T18:05:53.717Z,13.46
2023-11-01T18:08:32.492Z,13.51
2023-11-01T18:11:08.530Z,13.47
2023-11-01T18:13:43.777Z,13.44
2023-11-01T18:16:25.107Z,13.43
2023-11-01T18:18:58.248Z,13.38
2023-11-01T18:21:34.769Z,13.34
2023-11-01T18:24:12.791Z,13.32
2023-11-01T18:26:45.911Z,13.35
2023-11-01T18:29:19.683Z,13.21
2023-11-01T18:31:52.763Z,13.41
2023-11-01T18:34:25.766Z,13.15
2023-11-01T18:37:00.188Z,13.22
2023-11-01T18:39:36.119Z,13.22
2023-11-01T18:42:10.749Z,13.09
2023-11-01T18:44:45.288Z,12.88
2023-11-01T18:47:23.189Z,12.79
2023-11-01T18:50:01.139Z,12.68
2023-11-01T18:52:34.694Z,12.64
2023-11-01T18:55:11.234Z,12.60
2023-11-01T18:57:44.258Z,12.52
2023-11-01T19:00:25.646Z,12.52
2023-11-01T19:03:07.645Z,12.65
2023-11-01T19:05:42.645Z,12.63
2023-11-01T19:08:17.982Z,12.61
2023-11-01T19:10:54.875Z,12.53
2023-11-01T19:13:30.419Z,12.58
2023-11-01T19:16:18.166Z,12.73
2023-11-01T19:18:51.760Z,12.68
2023-11-01T19:21:24.877Z,12.81
2023-11-01T19:23:57.832Z,12.80
2023-11-01T19:26:33.012Z,12.74
2023-11-01T19:29:06.284Z,12.73
2023-11-01T19:31:39.275Z,12.82
2023-11-01T19:34:12.333Z,12.81
2023-11-01T19:36:45.273Z,12.72
2023-11-01T19:39:18.974Z,12.69
2023-11-01T19:42:06.404Z,12.70
2023-11-01T19:44:40.289Z,12.67
2023-11-01T19:47:13.461Z,12.67
2023-11-01T19:49:46.504Z,12.49
2023-11-01T19:52:19.495Z,12.52
2023-11-01T19:55:08.722Z,12.45
2023-11-01T19:57:45.808Z,12.44
2023-11-01T20:00:19.614Z,12.49
2023-11-01T20:02:52.880Z,12.46
2023-11-01T20:05:25.779Z,12.47
2023-11-01T20:08:00.985Z,12.42
2023-11-01T20:10:33.995Z,12.38
2023-11-01T20:13:08.295Z,12.44
2023-11-01T20:15:43.924Z,12.56
2023-11-01T20:18:17.371Z,12.63
2023-11-01T20:20:50.626Z,12.49
2023-11-01T20:23:23.495Z,12.54
2023-11-01T20:25:56.487Z,12.58
2023-11-01T20:28:30.723Z,12.65
2023-11-01T20:31:03.934Z,12.75
2023-11-01T20:33:37.143Z,12.63
2023-11-01T20:36:10.606Z,12.53
2023-11-01T20:38:44.471Z,12.59
2023-11-01T20:41:19.541Z,12.51
2023-11-01T20:43:53.758Z,12.57
2023-11-01T20:46:26.645Z,12.75
2023-11-01T20:48:59.822Z,12.68
2023-11-01T20:51:32.757Z,12.61
2023-11-01T20:54:21.046Z,12.58
2023-11-01T20:56:54.075Z,12.28
2023-11-01T20:59:28.413Z,12.35
2023-11-01T21:02:01.420Z,12.16
2023-11-01T21:04:34.790Z,12.05
2023-11-01T21:07:08.964Z,12.06
2023-11-01T21:09:41.930Z,12.10
2023-11-01T21:12:15.022Z,12.07
2023-11-01T21:14:49.444Z,11.97
2023-11-01T21:17:23.629Z,12.11
2023-11-01T21:19:56.561Z,12.03
2023-11-01T21:22:34.122Z,12.00
2023-11-01T21:25:07.805Z,12.14
2023-11-01T21:27:40.715Z,12.25
2023-11-01T21:30:15.711Z,12.28
2023-11-01T21:32:50.005Z,12.19
2023-11-01T21:35:31.734Z,12.17
2023-11-01T21:38:09.662Z,12.32
2023-11-01T21:41:47.941Z,12.24
2023-11-01T21:44:36.537Z,12.31
2023-11-01T21:47:14.238Z,12.31
2023-11-01T21:49:47.874Z,12.41
2023-11-01T21:52:29.753Z,12.45
2023-11-01T21:55:35.092Z,12.30
2023-11-01T21:58:20.491Z,12.38
2023-11-01T22:01:00.310Z,12.34
2023-11-01T22:03:42.611Z,12.48
2023-11-01T22:06:18.473Z,12.43
2023-11-01T22:09:00.662Z,12.31
2023-11-01T22:11:36.512Z,12.09
2023-11-01T22:14:12.775Z,12.13
2023-11-01T22:16:46.401Z,12.02
2023-11-01T22:19:44.442Z,12.14
2023-11-01T22:22:59.526Z,11.84
2023-11-01T22:25:44.114Z,12.17
2023-11-01T22:29:22.460Z,12.06
2023-11-01T22:31:56.756Z,11.92
2023-11-01T22:34:32.160Z,11.79
2023-11-01T22:37:09.740Z,11.62
2023-11-01T22:39:48.825Z,11.47
2023-11-01T22:42:31.607Z,11.61
2023-11-01T22:45:05.674Z,11.44
2023-11-01T22:47:41.970Z,11.47
2023-11-01T22:50:17.004Z,11.33
2023-11-01T22:52:53.055Z,11.18
2023-11-01T22:55:40.553Z,11.23
2023-11-01T22:58:16.185Z,11.00
2023-11-01T23:00:52.380Z,10.94
2023-11-01T23:03:27.870Z,10.91
2023-11-01T23:06:05.522Z,10.85
2023-11-01T23:08:38.688Z,10.35
2023-11-01T23:11:16.112Z,10.35
2023-11-01T23:14:13.410Z,10.59
2023-11-01T23:16:46.952Z,10.55
2023-11-01T23:19:27.075Z,10.46
2023-11-01T23:22:01.824Z,9.87
2023-11-01T23:24:35.937Z,9.94
2023-11-01T23:27:10.024Z,9.91
2023-11-01T23:29:43.336Z,9.73
2023-11-01T23:32:16.944Z,9.76
2023-11-01T23:35:14.311Z,9.69
2023-11-01T23:37:48.653Z,9.71
2023-11-01T23:40:33.871Z,9.65
2023-11-01T23:43:07.086Z,9.56
2023-11-01T23:46:09.517Z,9.72
2023-11-01T23:48:44.541Z,9.64
2023-11-01T23:51:54.163Z,9.75
2023-11-01T23:54:29.170Z,9.82
2023-11-01T23:57:02.139Z,9.64
2023-11-01T23:59:35.151Z,9.60
